createdAt,value
2022-09-28T00:00:32.865Z,6.87
2022-09-28T00:01:33.009Z,6.87
2022-09-28T00:02:33.195Z,6.88
2022-09-28T00:03:33.200Z,6.88
2022-09-28T00:04:33.322Z,6.89
2022-09-28T00:05:33.417Z,6.89
2022-09-28T00:06:33.690Z,6.88
2022-09-28T00:07:33.664Z,6.88
2022-09-28T00:08:33.802Z,6.88
2022-09-28T00:09:33.886Z,6.88
2022-09-28T00:10:34.008Z,6.89
2022-09-28T00:11:34.216Z,6.89
2022-09-28T00:12:34.269Z,6.88
2022-09-28T00:13:34.342Z,6.88
2022-09-28T00:14:34.454Z,6.87
2022-09-28T00:15:34.560Z,6.87
2022-09-28T00:16:34.852Z,6.87
2022-09-28T00:17:34.797Z,6.87
2022-09-28T00:18:34.903Z,6.87
2022-09-28T00:19:35.100Z,6.87
2022-09-28T00:20:35.135Z,6.86
2022-09-28T00:21:35.323Z,6.86
2022-09-28T00:22:35.373Z,6.86
2022-09-28T00:23:35.493Z,6.86
2022-09-28T00:24:35.597Z,6.86
2022-09-28T00:25:35.683Z,6.86
2022-09-28T00:26:35.862Z,6.86
2022-09-28T00:27:35.901Z,6.87
2022-09-28T00:28:36.010Z,6.87
2022-09-28T00:29:36.127Z,6.87
2022-09-28T00:30:36.234Z,6.87
2022-09-28T00:31:36.468Z,6.87
2022-09-28T00:32:36.453Z,6.87
2022-09-28T00:33:36.562Z,6.88
2022-09-28T00:34:36.710Z,6.89
2022-09-28T00:35:36.813Z,6.90
2022-09-28T00:36:36.939Z,6.91
2022-09-28T00:37:37.065Z,6.93
2022-09-28T00:38:37.143Z,6.93
2022-09-28T00:39:37.237Z,6.94
2022-09-28T00:40:37.417Z,6.94
2022-09-28T00:41:37.478Z,6.94
2022-09-28T00:42:37.606Z,6.94
2022-09-28T00:43:37.700Z,6.94
2022-09-28T00:44:37.829Z,6.95
2022-09-28T00:45:37.973Z,6.96
2022-09-28T00:46:38.214Z,6.97
2022-09-28T00:47:38.189Z,6.98
2022-09-28T00:48:38.276Z,6.99
2022-09-28T00:49:38.386Z,7.00
2022-09-28T00:50:38.504Z,7.01
2022-09-28T00:51:38.683Z,7.02
2022-09-28T00:52:39.138Z,7.02
2022-09-28T00:53:38.846Z,7.03
2022-09-28T00:54:38.977Z,7.04
2022-09-28T00:55:39.054Z,7.05
2022-09-28T00:56:39.185Z,7.06
2022-09-28T00:57:39.243Z,7.08
2022-09-28T00:58:39.357Z,7.09
2022-09-28T00:59:39.464Z,7.10
2022-09-28T01:00:39.635Z,7.10
2022-09-28T01:01:39.779Z,7.10
2022-09-28T01:02:39.802Z,7.10
2022-09-28T01:03:39.895Z,7.10
2022-09-28T01:04:40.031Z,7.10
2022-09-28T01:05:40.132Z,7.10
2022-09-28T01:06:40.487Z,7.11
2022-09-28T01:07:40.354Z,7.11
2022-09-28T01:08:40.461Z,7.12
2022-09-28T01:09:40.569Z,7.11
2022-09-28T01:10:40.680Z,7.11
2022-09-28T01:11:40.831Z,7.12
2022-09-28T01:12:40.899Z,7.13
2022-09-28T01:13:41.029Z,7.13
2022-09-28T01:14:41.130Z,7.13
2022-09-28T01:15:41.249Z,7.14
2022-09-28T01:16:41.561Z,7.14
2022-09-28T01:17:41.456Z,7.14
2022-09-28T01:18:41.559Z,7.15
2022-09-28T01:19:41.710Z,7.15
2022-09-28T01:20:41.794Z,7.15
2022-09-28T01:21:41.937Z,7.15
2022-09-28T01:22:42.016Z,7.15
2022-09-28T01:23:42.147Z,7.15
2022-09-28T01:24:42.260Z,7.15
2022-09-28T01:25:42.390Z,7.16
2022-09-28T01:26:42.508Z,7.17
2022-09-28T01:27:42.606Z,7.17
2022-09-28T01:28:42.726Z,7.18
2022-09-28T01:29:42.816Z,7.17
2022-09-28T01:30:42.946Z,7.16
2022-09-28T01:31:43.100Z,7.15
2022-09-28T01:32:43.177Z,7.16
2022-09-28T01:33:43.293Z,7.16
2022-09-28T01:34:43.416Z,7.17
2022-09-28T01:35:43.507Z,7.16
2022-09-28T01:36:43.655Z,7.17
2022-09-28T01:37:43.733Z,7.17
2022-09-28T01:38:43.822Z,7.17
2022-09-28T01:39:43.954Z,7.16
2022-09-28T01:40:44.089Z,7.15
2022-09-28T01:41:44.328Z,7.15
2022-09-28T01:42:44.322Z,7.15
2022-09-28T01:43:44.380Z,7.15
2022-09-28T01:44:44.505Z,7.14
2022-09-28T01:45:44.676Z,7.14
2022-09-28T01:46:44.744Z,7.13
2022-09-28T01:47:44.846Z,7.12
2022-09-28T01:48:44.960Z,7.12
2022-09-28T01:49:45.081Z,7.12
2022-09-28T01:50:45.189Z,7.13
2022-09-28T01:51:45.458Z,7.13
2022-09-28T01:52:45.408Z,7.13
2022-09-28T01:53:45.509Z,7.14
2022-09-28T01:54:45.628Z,7.13
2022-09-28T01:55:45.768Z,7.13
2022-09-28T01:56:45.961Z,7.13
2022-09-28T01:57:45.987Z,7.12
2022-09-28T01:58:46.111Z,7.12
2022-09-28T01:59:46.216Z,7.12
2022-09-28T02:00:46.378Z,7.12
2022-09-28T02:01:46.537Z,7.12
2022-09-28T02:02:46.559Z,7.12
2022-09-28T02:03:46.665Z,7.12
2022-09-28T02:04:46.786Z,7.12
2022-09-28T02:05:46.914Z,7.11
2022-09-28T02:06:47.139Z,7.11
2022-09-28T02:07:47.178Z,7.11
2022-09-28T02:08:47.246Z,7.11
2022-09-28T02:09:47.356Z,7.11
2022-09-28T02:10:47.475Z,7.11
2022-09-28T02:11:47.682Z,7.12
2022-09-28T02:12:47.708Z,7.12
2022-09-28T02:13:47.803Z,7.11
2022-09-28T02:14:47.933Z,7.11
2022-09-28T02:15:48.041Z,7.10
2022-09-28T02:16:48.182Z,7.09
2022-09-28T02:17:48.281Z,7.09
2022-09-28T02:18:48.383Z,7.10
2022-09-28T02:19:48.501Z,7.10
2022-09-28T02:20:48.600Z,7.11
2022-09-28T02:21:48.750Z,7.11
2022-09-28T02:22:48.820Z,7.11
2022-09-28T02:23:48.939Z,7.11
2022-09-28T02:24:49.063Z,7.11
2022-09-28T02:25:49.169Z,7.11
2022-09-28T02:26:49.330Z,7.12
2022-09-28T02:27:49.407Z,7.13
2022-09-28T02:28:49.508Z,7.13
2022-09-28T02:29:49.638Z,7.13
2022-09-28T02:30:49.828Z,7.13
2022-09-28T02:31:49.979Z,7.13
2022-09-28T02:32:50.031Z,7.14
2022-09-28T02:33:50.627Z,7.15
2022-09-28T02:34:50.265Z,7.15
2022-09-28T02:35:50.387Z,7.15
2022-09-28T02:36:50.506Z,7.15
2022-09-28T02:37:50.596Z,7.16
2022-09-28T02:38:50.717Z,7.17
2022-09-28T02:39:50.827Z,7.17
2022-09-28T02:40:50.990Z,7.18
2022-09-28T02:41:51.065Z,7.18
2022-09-28T02:42:51.210Z,7.17
2022-09-28T02:43:51.265Z,7.17
2022-09-28T02:44:51.444Z,7.16
2022-09-28T02:45:51.521Z,7.16
2022-09-28T02:46:51.623Z,7.16
2022-09-28T02:47:51.703Z,7.17
2022-09-28T02:49:04.949Z,7.17
2022-09-28T02:49:52.942Z,7.17
2022-09-28T02:50:52.057Z,7.18
2022-09-28T02:51:52.233Z,7.19
2022-09-28T02:52:52.342Z,7.19
2022-09-28T02:53:52.401Z,7.20
2022-09-28T02:54:52.513Z,7.21
2022-09-28T02:55:52.635Z,7.22
2022-09-28T02:56:52.774Z,7.22
2022-09-28T02:57:52.850Z,7.22
2022-09-28T02:58:52.939Z,7.22
2022-09-28T02:59:53.051Z,7.22
2022-09-28T03:00:53.223Z,7.22
2022-09-28T03:01:53.410Z,7.21
2022-09-28T03:02:53.399Z,7.21
2022-09-28T03:03:53.513Z,7.20
2022-09-28T03:04:53.610Z,7.19
2022-09-28T03:05:53.734Z,7.19
2022-09-28T03:06:54.041Z,7.18
2022-09-28T03:07:54.007Z,7.18
2022-09-28T03:08:54.049Z,7.17
2022-09-28T03:09:54.165Z,7.16
2022-09-28T03:10:54.278Z,7.16
2022-09-28T03:11:54.567Z,7.16
2022-09-28T03:12:54.509Z,7.15
2022-09-28T03:13:54.638Z,7.14
2022-09-28T03:14:54.724Z,7.12
2022-09-28T03:15:54.858Z,7.12
2022-09-28T03:16:54.987Z,7.12
2022-09-28T03:17:55.066Z,7.12
2022-09-28T03:18:55.172Z,7.12
2022-09-28T03:19:55.285Z,7.12
2022-09-28T03:20:55.386Z,7.11
2022-09-28T03:21:55.675Z,7.11
2022-09-28T03:23:22.716Z,7.11
2022-09-28T03:23:56.743Z,7.10
2022-09-28T03:24:55.853Z,7.09
2022-09-28T03:25:55.953Z,7.09
2022-09-28T03:26:56.153Z,7.09
2022-09-28T03:27:56.203Z,7.09
2022-09-28T03:28:56.309Z,7.09
2022-09-28T03:29:56.457Z,7.09
2022-09-28T03:30:56.529Z,7.09
2022-09-28T03:31:56.750Z,7.09
2022-09-28T03:32:56.791Z,7.09
2022-09-28T03:33:56.910Z,7.09
2022-09-28T03:34:56.994Z,7.09
2022-09-28T03:35:57.130Z,7.09
2022-09-28T03:36:57.259Z,7.09
2022-09-28T03:37:57.404Z,7.10
2022-09-28T03:38:57.528Z,7.11
2022-09-28T03:39:57.632Z,7.11
2022-09-28T03:40:57.892Z,7.10
2022-09-28T03:41:57.952Z,7.10
2022-09-28T03:42:57.998Z,7.09
2022-09-28T03:43:58.155Z,7.08
2022-09-28T03:44:58.238Z,7.08
2022-09-28T03:45:58.437Z,7.07
2022-09-28T03:46:58.495Z,7.06
2022-09-28T03:47:58.618Z,7.06
2022-09-28T03:48:58.728Z,7.06
2022-09-28T03:49:58.862Z,7.06
2022-09-28T03:50:58.976Z,7.06
2022-09-28T03:51:59.096Z,7.05
2022-09-28T03:52:59.248Z,7.05
2022-09-28T03:53:59.318Z,7.04
2022-09-28T03:54:59.413Z,7.04
2022-09-28T03:55:59.514Z,7.04
2022-09-28T03:56:59.676Z,7.05
2022-09-28T03:57:59.739Z,7.05
2022-09-28T03:58:59.845Z,7.03
2022-09-28T03:59:59.982Z,7.02
2022-09-28T04:01:00.155Z,7.01
2022-09-28T04:02:00.245Z,6.99
2022-09-28T04:03:00.312Z,6.99
2022-09-28T04:04:00.426Z,6.98
2022-09-28T04:05:00.592Z,6.97
2022-09-28T04:06:00.642Z,6.97
2022-09-28T04:07:00.832Z,6.96
2022-09-28T04:08:00.902Z,6.95
2022-09-28T04:09:01.032Z,6.95
2022-09-28T04:10:01.132Z,6.94
2022-09-28T04:11:01.231Z,6.94
2022-09-28T04:12:04.273Z,6.93
2022-09-28T04:13:01.462Z,6.92
2022-09-28T04:14:01.581Z,6.90
2022-09-28T04:15:01.703Z,6.89
2022-09-28T04:16:01.915Z,6.88
2022-09-28T04:17:01.922Z,6.88
2022-09-28T04:18:02.027Z,6.86
2022-09-28T04:19:02.127Z,6.86
2022-09-28T04:20:02.265Z,6.87
2022-09-28T04:21:02.347Z,6.87
2022-09-28T04:22:02.489Z,6.87
2022-09-28T04:23:03.147Z,6.87
2022-09-28T04:24:02.691Z,6.86
2022-09-28T04:25:02.786Z,6.85
2022-09-28T04:26:02.895Z,6.84
2022-09-28T04:27:03.032Z,6.83
2022-09-28T04:28:03.136Z,6.82
2022-09-28T04:29:06.571Z,6.81
2022-09-28T04:30:03.397Z,6.79
2022-09-28T04:31:03.465Z,6.78
2022-09-28T04:32:03.662Z,6.77
2022-09-28T04:33:03.697Z,6.78
2022-09-28T04:34:03.794Z,6.78
2022-09-28T04:35:03.916Z,6.77
2022-09-28T04:36:04.015Z,6.77
2022-09-28T04:37:04.166Z,6.75
2022-09-28T04:38:04.292Z,6.74
2022-09-28T04:39:04.334Z,6.74
2022-09-28T04:40:04.435Z,6.75
2022-09-28T04:41:04.554Z,6.76
2022-09-28T04:42:04.714Z,6.76
2022-09-28T04:43:04.797Z,6.77
2022-09-28T04:44:04.889Z,6.77
2022-09-28T04:45:05.010Z,6.78
2022-09-28T04:46:05.144Z,6.78
2022-09-28T04:47:05.514Z,6.79
2022-09-28T04:48:05.371Z,6.79
2022-09-28T04:49:05.478Z,6.80
2022-09-28T04:50:05.594Z,6.81
2022-09-28T04:51:05.712Z,6.81
2022-09-28T04:52:05.821Z,6.81
2022-09-28T04:53:05.912Z,6.81
2022-09-28T04:54:06.059Z,6.81
2022-09-28T04:55:06.163Z,6.82
2022-09-28T04:56:06.305Z,6.82
2022-09-28T04:57:06.466Z,6.83
2022-09-28T04:58:06.507Z,6.84
2022-09-28T04:59:06.608Z,6.84
2022-09-28T05:00:06.737Z,6.84
2022-09-28T05:01:06.883Z,6.84
2022-09-28T05:02:07.019Z,6.84
2022-09-28T05:03:07.086Z,6.83
2022-09-28T05:04:07.227Z,6.83
2022-09-28T05:05:07.284Z,6.82
2022-09-28T05:06:07.426Z,6.83
2022-09-28T05:07:07.557Z,6.83
2022-09-28T05:08:07.686Z,6.84
2022-09-28T05:09:07.785Z,6.84
2022-09-28T05:10:07.876Z,6.84
2022-09-28T05:11:08.008Z,6.84
2022-09-28T05:12:08.266Z,6.83
2022-09-28T05:13:08.228Z,6.83
2022-09-28T05:14:08.337Z,6.82
2022-09-28T05:15:08.469Z,6.82
2022-09-28T05:16:08.623Z,6.81
2022-09-28T05:17:08.690Z,6.80
2022-09-28T05:18:08.783Z,6.80
2022-09-28T05:19:08.913Z,6.81
2022-09-28T05:20:09.032Z,6.81
2022-09-28T05:21:10.156Z,6.81
2022-09-28T05:22:09.292Z,6.80
2022-09-28T05:23:09.355Z,6.79
2022-09-28T05:24:09.472Z,6.79
2022-09-28T05:25:09.605Z,6.78
2022-09-28T05:26:09.742Z,6.77
2022-09-28T05:27:09.837Z,6.77
2022-09-28T05:28:10.015Z,6.77
2022-09-28T05:29:10.095Z,6.77
2022-09-28T05:30:10.166Z,6.78
2022-09-28T05:31:10.270Z,6.78
2022-09-28T05:32:10.443Z,6.78
2022-09-28T05:33:10.533Z,6.78
2022-09-28T05:34:10.676Z,6.79
2022-09-28T05:35:10.729Z,6.79
2022-09-28T05:36:10.851Z,6.79
2022-09-28T05:37:11.009Z,6.79
2022-09-28T05:38:11.069Z,6.80
2022-09-28T05:39:11.267Z,6.80
2022-09-28T05:40:11.306Z,6.81
2022-09-28T05:41:11.483Z,6.82
2022-09-28T05:42:11.579Z,6.83
2022-09-28T05:43:11.637Z,6.83
2022-09-28T05:44:11.740Z,6.83
2022-09-28T05:45:11.858Z,6.83
2022-09-28T05:46:12.015Z,6.83
2022-09-28T05:47:12.116Z,6.83
2022-09-28T05:48:12.177Z,6.84
2022-09-28T05:49:12.290Z,6.84
2022-09-28T05:50:12.395Z,6.85
2022-09-28T05:51:12.530Z,6.86
2022-09-28T05:52:12.664Z,6.87
2022-09-28T05:53:12.731Z,6.88
2022-09-28T05:54:12.850Z,6.90
2022-09-28T05:55:12.967Z,6.91
2022-09-28T05:56:13.083Z,6.92
2022-09-28T05:57:13.232Z,6.92
2022-09-28T05:58:14.254Z,6.93
2022-09-28T05:59:13.416Z,6.94
2022-09-28T06:00:13.509Z,6.94
2022-09-28T06:01:13.706Z,6.95
2022-09-28T06:02:13.838Z,6.96
2022-09-28T06:03:13.902Z,6.96
2022-09-28T06:04:14.013Z,6.96
2022-09-28T06:05:14.120Z,6.96
2022-09-28T06:06:14.247Z,6.96
2022-09-28T06:07:14.547Z,6.96
2022-09-28T06:08:14.449Z,6.96
2022-09-28T06:09:14.580Z,6.97
2022-09-28T06:10:14.762Z,6.97
2022-09-28T06:11:14.841Z,6.98
2022-09-28T06:12:15.109Z,6.98
2022-09-28T06:13:15.059Z,6.98
2022-09-28T06:14:15.192Z,6.99
2022-09-28T06:15:15.280Z,6.99
2022-09-28T06:16:15.456Z,7.00
2022-09-28T06:17:15.529Z,7.01
2022-09-28T06:18:15.589Z,7.03
2022-09-28T06:19:15.717Z,7.04
2022-09-28T06:20:15.818Z,7.05
2022-09-28T06:21:16.018Z,7.05
2022-09-28T06:22:16.050Z,7.05
2022-09-28T06:23:16.157Z,7.06
2022-09-28T06:24:16.256Z,7.09
2022-09-28T06:25:16.436Z,7.11
2022-09-28T06:26:16.516Z,7.12
2022-09-28T06:27:16.591Z,7.14
2022-09-28T06:28:16.695Z,7.15
2022-09-28T06:29:19.430Z,7.16
2022-09-28T06:30:16.904Z,7.17
2022-09-28T06:31:17.078Z,7.18
2022-09-28T06:32:17.116Z,7.18
2022-09-28T06:33:17.225Z,7.20
2022-09-28T06:34:17.509Z,7.21
2022-09-28T06:35:17.444Z,7.22
2022-09-28T06:36:17.583Z,7.21
2022-09-28T06:37:17.679Z,7.21
2022-09-28T06:38:17.831Z,7.23
2022-09-28T06:39:17.981Z,7.25
2022-09-28T06:40:18.102Z,7.26
2022-09-28T06:41:18.184Z,7.27
2022-09-28T06:42:18.302Z,7.28
2022-09-28T06:43:18.414Z,7.30
2022-09-28T06:44:18.679Z,7.30
2022-09-28T06:45:18.660Z,7.29
2022-09-28T06:46:18.844Z,7.29
2022-09-28T06:47:18.861Z,7.29
2022-09-28T06:48:18.980Z,7.29
2022-09-28T06:49:19.712Z,7.28
2022-09-28T06:50:19.190Z,7.28
2022-09-28T06:51:19.349Z,7.27
2022-09-28T06:52:19.421Z,7.27
2022-09-28T06:53:19.510Z,7.26
2022-09-28T06:54:19.637Z,7.26
2022-09-28T06:55:19.758Z,7.26
2022-09-28T06:56:19.877Z,7.26
2022-09-28T06:57:19.959Z,7.26
2022-09-28T06:58:20.086Z,7.26
2022-09-28T06:59:20.220Z,7.27
2022-09-28T07:00:20.327Z,7.28
2022-09-28T07:01:20.517Z,7.30
2022-09-28T07:02:20.588Z,7.31
2022-09-28T07:03:20.667Z,7.30
2022-09-28T07:04:20.810Z,7.30
2022-09-28T07:05:20.936Z,7.30
2022-09-28T07:06:21.035Z,7.30
2022-09-28T07:07:21.130Z,7.29
2022-09-28T07:08:21.233Z,7.29
2022-09-28T07:09:32.400Z,7.28
2022-09-28T07:10:22.442Z,7.28
2022-09-28T07:11:21.586Z,7.29
2022-09-28T07:12:21.674Z,7.30
2022-09-28T07:13:46.715Z,7.32
2022-09-28T07:14:40.037Z,7.35
2022-09-28T07:15:22.999Z,7.37
2022-09-28T07:16:26.944Z,7.38
2022-09-28T07:17:23.286Z,7.38
2022-09-28T07:18:22.348Z,7.38
2022-09-28T07:19:22.466Z,7.39
2022-09-28T07:20:22.593Z,7.40
2022-09-28T07:21:29.926Z,7.43
2022-09-28T07:22:39.553Z,7.44
2022-09-28T07:23:23.882Z,7.45
2022-09-28T07:24:23.003Z,7.46
2022-09-28T07:25:23.129Z,7.48
2022-09-28T07:26:24.556Z,7.51
2022-09-28T07:27:28.118Z,7.52
2022-09-28T07:28:24.439Z,7.53
2022-09-28T07:29:23.580Z,7.54
2022-09-28T07:30:23.686Z,7.56
2022-09-28T07:31:23.803Z,7.57
2022-09-28T07:32:23.924Z,7.58
2022-09-28T07:33:23.974Z,7.59
2022-09-28T07:34:24.099Z,7.61
2022-09-28T07:35:24.210Z,7.61
2022-09-28T07:36:24.327Z,7.62
2022-09-28T07:37:24.447Z,7.64
2022-09-28T07:38:24.558Z,7.66
2022-09-28T07:39:24.679Z,7.69
2022-09-28T07:40:24.865Z,7.72
2022-09-28T07:41:24.906Z,7.75
2022-09-28T07:42:25.027Z,7.77
2022-09-28T07:43:25.144Z,7.78
2022-09-28T07:44:25.234Z,7.80
2022-09-28T07:45:25.363Z,7.81
2022-09-28T07:46:25.623Z,7.83
2022-09-28T07:47:25.603Z,7.84
2022-09-28T07:48:25.722Z,7.86
2022-09-28T07:49:25.825Z,7.88
2022-09-28T07:50:25.922Z,7.91
2022-09-28T07:51:26.093Z,7.93
2022-09-28T07:52:26.162Z,7.96
2022-09-28T07:53:26.254Z,8.00
2022-09-28T07:54:26.374Z,8.06
2022-09-28T07:55:26.501Z,8.13
2022-09-28T07:56:26.642Z,8.22
2022-09-28T07:57:26.705Z,8.35
2022-09-28T07:58:26.816Z,8.46
2022-09-28T07:59:26.925Z,8.53
2022-09-28T08:00:28.938Z,8.55
2022-09-28T08:01:28.249Z,8.53
2022-09-28T08:02:27.319Z,8.52
2022-09-28T08:03:27.391Z,8.53
2022-09-28T08:04:27.478Z,8.55
2022-09-28T08:05:27.591Z,8.57
2022-09-28T08:06:27.740Z,8.60
2022-09-28T08:07:27.819Z,8.60
2022-09-28T08:08:27.920Z,8.60
2022-09-28T08:09:28.021Z,8.65
2022-09-28T08:10:28.160Z,8.73
2022-09-28T08:11:28.308Z,8.85
2022-09-28T08:12:28.400Z,9.01
2022-09-28T08:13:28.518Z,9.23
2022-09-28T08:14:28.669Z,9.44
2022-09-28T08:15:28.817Z,9.56
2022-09-28T08:16:29.065Z,9.53
2022-09-28T08:17:29.056Z,9.40
2022-09-28T08:18:29.200Z,9.27
2022-09-28T08:19:29.347Z,9.16
2022-09-28T08:20:29.495Z,9.09
2022-09-28T08:21:29.667Z,9.07
2022-09-28T08:22:29.767Z,9.06
2022-09-28T08:23:29.856Z,9.07
2022-09-28T08:24:30.016Z,9.07
2022-09-28T08:25:30.108Z,9.06
2022-09-28T08:26:30.289Z,9.07
2022-09-28T08:27:30.364Z,9.09
2022-09-28T08:28:30.530Z,9.09
2022-09-28T08:29:30.617Z,9.08
2022-09-28T08:30:30.764Z,9.09
2022-09-28T08:31:30.856Z,9.12
2022-09-28T08:32:30.956Z,9.14
2022-09-28T08:33:31.084Z,9.15
2022-09-28T08:34:31.205Z,9.16
2022-09-28T08:35:31.350Z,9.18
2022-09-28T08:36:31.517Z,9.20
2022-09-28T08:37:31.618Z,9.20
2022-09-28T08:38:31.784Z,9.20
2022-09-28T08:39:31.882Z,9.18
2022-09-28T08:40:32.068Z,9.15
2022-09-28T08:41:32.174Z,9.13
2022-09-28T08:42:32.303Z,9.13
2022-09-28T08:43:32.445Z,9.14
2022-09-28T08:44:32.660Z,9.15
2022-09-28T08:45:32.713Z,9.17
2022-09-28T08:46:32.911Z,9.19
2022-09-28T08:47:32.971Z,9.21
2022-09-28T08:48:33.091Z,9.20
2022-09-28T08:49:33.476Z,9.18
2022-09-28T08:50:33.363Z,9.17
2022-09-28T08:51:33.553Z,9.18
2022-09-28T08:52:33.651Z,9.20
2022-09-28T08:53:33.793Z,9.24
2022-09-28T08:54:33.939Z,9.28
2022-09-28T08:55:34.091Z,9.30
2022-09-28T08:56:34.264Z,9.28
2022-09-28T08:57:34.362Z,9.27
2022-09-28T08:58:34.538Z,9.27
2022-09-28T08:59:34.640Z,9.28
2022-09-28T09:00:34.799Z,9.29
2022-09-28T09:01:35.030Z,9.28
2022-09-28T09:02:35.048Z,9.28
2022-09-28T09:03:35.194Z,9.27
2022-09-28T09:04:35.267Z,9.27
2022-09-28T09:05:35.420Z,9.30
2022-09-28T09:06:35.659Z,9.31
2022-09-28T09:07:35.652Z,9.32
2022-09-28T09:08:35.808Z,9.33
2022-09-28T09:09:35.947Z,9.33
2022-09-28T09:10:36.038Z,9.34
2022-09-28T09:11:36.197Z,9.34
2022-09-28T09:12:36.318Z,9.34
2022-09-28T09:13:36.427Z,9.37
2022-09-28T09:14:36.567Z,9.43
2022-09-28T09:15:36.698Z,9.51
2022-09-28T09:16:36.895Z,9.59
2022-09-28T09:17:36.976Z,9.70
2022-09-28T09:18:37.116Z,9.83
2022-09-28T09:19:37.298Z,9.97
2022-09-28T09:20:37.355Z,10.14
2022-09-28T09:21:37.485Z,10.32
2022-09-28T09:22:37.586Z,10.48
2022-09-28T09:23:37.725Z,10.60
2022-09-28T09:24:37.865Z,10.67
2022-09-28T09:25:38.712Z,10.75
2022-09-28T09:26:38.116Z,10.86
2022-09-28T09:27:38.205Z,10.90
2022-09-28T09:28:38.362Z,10.89
2022-09-28T09:29:38.445Z,10.90
2022-09-28T09:30:38.619Z,10.92
2022-09-28T09:31:38.755Z,10.94
2022-09-28T09:32:38.844Z,10.95
2022-09-28T09:33:38.995Z,10.91
2022-09-28T09:34:39.103Z,10.87
2022-09-28T09:35:39.246Z,10.81
2022-09-28T09:36:39.405Z,10.74
2022-09-28T09:37:39.508Z,10.68
2022-09-28T09:38:39.652Z,10.67
2022-09-28T09:39:39.763Z,10.69
2022-09-28T09:40:39.918Z,10.72
2022-09-28T09:41:40.016Z,10.75
2022-09-28T09:42:40.123Z,10.80
2022-09-28T09:43:40.225Z,10.87
2022-09-28T09:44:40.338Z,10.93
2022-09-28T09:45:40.476Z,10.96
2022-09-28T09:46:40.602Z,10.98
2022-09-28T09:47:40.673Z,11.01
2022-09-28T09:48:40.762Z,11.10
2022-09-28T09:49:40.922Z,11.24
2022-09-28T09:50:41.031Z,11.38
2022-09-28T09:51:41.234Z,11.47
2022-09-28T09:52:44.303Z,11.51
2022-09-28T09:53:41.422Z,11.53
2022-09-28T09:54:41.515Z,11.57
2022-09-28T09:55:41.658Z,11.59
2022-09-28T09:56:41.841Z,11.60
2022-09-28T09:57:41.939Z,11.60
2022-09-28T09:58:42.101Z,11.61
2022-09-28T09:59:42.324Z,11.63
2022-09-28T10:00:42.320Z,11.66
2022-09-28T10:01:42.539Z,11.70
2022-09-28T10:02:42.692Z,11.70
2022-09-28T10:03:42.721Z,11.63
2022-09-28T10:04:42.860Z,11.55
2022-09-28T10:05:43.020Z,11.49
2022-09-28T10:06:43.169Z,11.45
2022-09-28T10:07:43.716Z,11.41
2022-09-28T10:08:43.406Z,11.35
2022-09-28T10:09:43.508Z,11.31
2022-09-28T10:10:43.610Z,11.31
2022-09-28T10:11:43.778Z,11.34
2022-09-28T10:12:43.918Z,11.38
2022-09-28T10:13:44.007Z,11.43
2022-09-28T10:14:44.160Z,11.48
2022-09-28T10:15:44.248Z,11.50
2022-09-28T10:16:44.511Z,11.52
2022-09-28T10:17:44.529Z,11.55
2022-09-28T10:18:44.629Z,11.59
2022-09-28T10:19:44.738Z,11.64
2022-09-28T10:20:44.961Z,11.69
2022-09-28T10:21:44.992Z,11.72
2022-09-28T10:22:45.078Z,11.70
2022-09-28T10:23:45.208Z,11.64
2022-09-28T10:24:45.322Z,11.59
2022-09-28T10:25:45.477Z,11.57
2022-09-28T10:26:45.617Z,11.63
2022-09-28T10:27:45.707Z,11.68
2022-09-28T10:28:45.876Z,11.73
2022-09-28T10:29:45.956Z,11.80
2022-09-28T10:30:46.158Z,11.89
2022-09-28T10:31:46.238Z,11.97
2022-09-28T10:32:46.347Z,12.07
2022-09-28T10:33:46.506Z,12.20
2022-09-28T10:34:50.261Z,12.32
2022-09-28T10:35:46.721Z,12.41
2022-09-28T10:36:46.882Z,12.52
2022-09-28T10:37:46.999Z,12.61
2022-09-28T10:38:47.076Z,12.68
2022-09-28T10:39:47.217Z,12.78
2022-09-28T10:40:47.347Z,12.88
2022-09-28T10:41:47.447Z,12.92
2022-09-28T10:42:47.545Z,12.96
2022-09-28T10:43:50.170Z,13.00
2022-09-28T10:44:47.796Z,12.99
2022-09-28T10:45:48.014Z,12.98
2022-09-28T10:46:48.104Z,12.95
2022-09-28T10:47:48.214Z,12.90
2022-09-28T10:48:48.298Z,12.82
2022-09-28T10:49:48.445Z,12.77
2022-09-28T10:50:48.531Z,12.78
2022-09-28T10:51:48.730Z,12.80
2022-09-28T10:52:48.826Z,12.75
2022-09-28T10:53:48.933Z,12.67
2022-09-28T10:54:49.099Z,12.58
2022-09-28T10:55:49.214Z,12.50
2022-09-28T10:56:49.319Z,12.42
2022-09-28T10:57:49.426Z,12.34
2022-09-28T10:58:49.524Z,12.29
2022-09-28T10:59:49.663Z,12.26
2022-09-28T11:00:49.810Z,12.24
2022-09-28T11:01:50.043Z,12.24
2022-09-28T11:02:50.087Z,12.27
2022-09-28T11:03:50.215Z,12.34
2022-09-28T11:04:50.333Z,12.50
2022-09-28T11:05:50.427Z,12.71
2022-09-28T11:06:50.808Z,12.96
2022-09-28T11:07:50.704Z,13.15
2022-09-28T11:08:50.859Z,13.28
2022-09-28T11:09:50.993Z,13.32
2022-09-28T11:10:51.114Z,13.26
2022-09-28T11:11:51.262Z,13.17
2022-09-28T11:12:51.363Z,13.10
2022-09-28T11:13:51.468Z,13.00
2022-09-28T11:14:51.571Z,12.86
2022-09-28T11:15:51.672Z,12.67
2022-09-28T11:16:51.927Z,12.54
2022-09-28T11:17:51.894Z,12.49
2022-09-28T11:18:51.971Z,12.47
2022-09-28T11:19:52.081Z,12.46
2022-09-28T11:20:52.246Z,12.47
2022-09-28T11:21:52.370Z,12.46
2022-09-28T11:22:53.654Z,12.39
2022-09-28T11:23:52.610Z,12.33
2022-09-28T11:24:52.732Z,12.31
2022-09-28T11:25:52.841Z,12.36
2022-09-28T11:26:53.521Z,12.49
2022-09-28T11:27:53.118Z,12.63
2022-09-28T11:28:53.230Z,12.67
2022-09-28T11:29:53.350Z,12.60
2022-09-28T11:30:53.504Z,12.48
2022-09-28T11:31:53.618Z,12.39
2022-09-28T11:32:53.763Z,12.33
2022-09-28T11:33:53.822Z,12.30
2022-09-28T11:34:59.453Z,12.29
2022-09-28T11:35:55.066Z,12.30
2022-09-28T11:36:56.455Z,12.31
2022-09-28T11:37:55.339Z,12.31
2022-09-28T11:38:54.475Z,12.32
2022-09-28T11:39:54.629Z,12.33
2022-09-28T11:40:54.843Z,12.33
2022-09-28T11:41:54.889Z,12.33
2022-09-28T11:42:55.041Z,12.31
2022-09-28T11:43:55.172Z,12.29
2022-09-28T11:44:55.228Z,12.27
2022-09-28T11:45:55.392Z,12.25
2022-09-28T11:47:02.524Z,12.23
2022-09-28T11:47:55.592Z,12.22
2022-09-28T11:48:55.692Z,12.21
2022-09-28T11:49:55.782Z,12.21
2022-09-28T11:50:55.942Z,12.20
2022-09-28T11:51:56.062Z,12.21
2022-09-28T11:52:56.174Z,12.23
2022-09-28T11:53:56.273Z,12.26
2022-09-28T11:54:56.424Z,12.32
2022-09-28T11:55:56.513Z,12.38
2022-09-28T11:56:56.696Z,12.45
2022-09-28T11:57:56.741Z,12.50
2022-09-28T11:58:56.846Z,12.52
2022-09-28T11:59:57.010Z,12.56
2022-09-28T12:00:57.137Z,12.61
2022-09-28T12:01:57.314Z,12.66
2022-09-28T12:02:57.473Z,12.69
2022-09-28T12:03:57.500Z,12.68
2022-09-28T12:04:57.591Z,12.66
2022-09-28T12:05:57.701Z,12.65
2022-09-28T12:06:58.888Z,12.63
2022-09-28T12:07:57.947Z,12.62
2022-09-28T12:08:58.071Z,12.64
2022-09-28T12:09:58.179Z,12.65
2022-09-28T12:10:58.309Z,12.65
2022-09-28T12:11:58.489Z,12.63
2022-09-28T12:12:58.541Z,12.62
2022-09-28T12:13:58.682Z,12.62
2022-09-28T12:14:58.782Z,12.62
2022-09-28T12:16:23.452Z,12.63
2022-09-28T12:17:06.213Z,12.62
2022-09-28T12:18:00.241Z,12.58
2022-09-28T12:19:59.428Z,12.58
2022-09-28T12:21:04.424Z,12.61
2022-09-28T12:22:00.686Z,12.66
2022-09-28T12:22:59.774Z,12.71
2022-09-28T12:23:59.929Z,12.76
2022-09-28T12:25:00.035Z,12.79
2022-09-28T12:26:00.221Z,12.80
2022-09-28T12:27:00.298Z,12.78
2022-09-28T12:28:00.566Z,12.77
2022-09-28T12:29:00.552Z,12.74
2022-09-28T12:30:00.644Z,12.66
2022-09-28T12:31:00.943Z,12.58
2022-09-28T12:32:00.897Z,12.51
2022-09-28T12:33:01.121Z,12.44
2022-09-28T12:34:02.115Z,12.40
2022-09-28T12:35:01.399Z,12.35
2022-09-28T12:36:01.388Z,12.30
2022-09-28T12:37:01.506Z,12.27
2022-09-28T12:38:01.634Z,12.26
2022-09-28T12:39:19.147Z,12.24
2022-09-28T12:40:03.162Z,12.22
2022-09-28T12:41:02.043Z,12.19
2022-09-28T12:42:02.158Z,12.16
2022-09-28T12:43:02.328Z,12.14
2022-09-28T12:44:02.387Z,12.11
2022-09-28T12:45:02.563Z,12.10
2022-09-28T12:46:17.971Z,12.09
2022-09-28T12:47:03.871Z,12.08
2022-09-28T12:48:02.974Z,12.06
2022-09-28T12:51:04.322Z,11.96
2022-09-28T12:52:03.438Z,11.95
2022-09-28T12:53:03.585Z,11.96
2022-09-28T12:54:03.631Z,11.97
2022-09-28T12:55:03.792Z,11.97
2022-09-28T12:56:03.863Z,11.97
2022-09-28T12:57:03.953Z,11.96
2022-09-28T12:58:04.091Z,11.95
2022-09-28T12:59:04.204Z,11.97
2022-09-28T13:00:04.310Z,12.00
2022-09-28T13:01:04.570Z,12.04
2022-09-28T13:02:04.681Z,12.08
2022-09-28T13:03:04.771Z,12.10
2022-09-28T13:04:04.859Z,12.13
2022-09-28T13:05:05.020Z,12.17
2022-09-28T13:06:05.131Z,12.23
2022-09-28T13:07:05.399Z,12.29
2022-09-28T13:08:05.435Z,12.34
2022-09-28T13:09:05.490Z,12.40
2022-09-28T13:10:05.590Z,12.44
2022-09-28T13:11:08.167Z,12.46
2022-09-28T13:12:05.850Z,12.47
2022-09-28T13:13:05.976Z,12.48
2022-09-28T13:14:06.101Z,12.48
2022-09-28T13:15:06.218Z,12.49